sensor_id;sensor_type;location;lat;lon;timestamp;temperature;humidity
20380;DHT22;10349;48.666;8.948;2022-08-18T00:01:35;17.90;99.90
20380;DHT22;10349;48.666;8.948;2022-08-18T00:04:01;17.80;99.90
20380;DHT22;10349;48.666;8.948;2022-08-18T00:06:28;17.80;99.90
20380;DHT22;10349;48.666;8.948;2022-08-18T00:08:53;17.70;99.90
20380;DHT22;10349;48.666;8.948;2022-08-18T00:11:19;17.60;99.90
20380;DHT22;10349;48.666;8.948;2022-08-18T00:13:45;17.60;99.90
20380;DHT22;10349;48.666;8.948;2022-08-18T00:16:11;17.60;99.90
20380;DHT22;10349;48.666;8.948;2022-08-18T00:18:36;17.50;99.90
20380;DHT22;10349;48.666;8.948;2022-08-18T00:21:02;17.50;99.90
20380;DHT22;10349;48.666;8.948;2022-08-18T00:23:28;17.50;99.90
20380;DHT22;10349;48.666;8.948;2022-08-18T00:25:57;17.50;99.90
20380;DHT22;10349;48.666;8.948;2022-08-18T00:28:23;17.60;99.90
20380;DHT22;10349;48.666;8.948;2022-08-18T00:30:49;17.60;99.90
20380;DHT22;10349;48.666;8.948;2022-08-18T00:33:15;17.50;99.90
20380;DHT22;10349;48.666;8.948;2022-08-18T00:35:40;17.50;99.90
20380;DHT22;10349;48.666;8.948;2022-08-18T00:38:08;17.50;99.90
20380;DHT22;10349;48.666;8.948;2022-08-18T00:40:47;17.50;99.90
20380;DHT22;10349;48.666;8.948;2022-08-18T00:43:26;17.50;99.90
20380;DHT22;10349;48.666;8.948;2022-08-18T00:45:53;17.50;99.90
20380;DHT22;10349;48.666;8.948;2022-08-18T00:48:18;17.60;99.90
20380;DHT22;10349;48.666;8.948;2022-08-18T00:50:48;17.70;99.90
20380;DHT22;10349;48.666;8.948;2022-08-18T00:53:35;17.70;99.90
20380;DHT22;10349;48.666;8.948;2022-08-18T00:56:12;17.70;99.90
20380;DHT22;10349;48.666;8.948;2022-08-18T00:58:47;17.70;99.90
20380;DHT22;10349;48.666;8.948;2022-08-18T01:01:15;17.70;99.90
20380;DHT22;10349;48.666;8.948;2022-08-18T01:03:45;17.70;99.90
20380;DHT22;10349;48.666;8.948;2022-08-18T01:08:53;17.60;99.90
20380;DHT22;10349;48.666;8.948;2022-08-18T01:11:20;17.50;99.90
20380;DHT22;10349;48.666;8.948;2022-08-18T01:13:46;17.40;99.90
20380;DHT22;10349;48.666;8.948;2022-08-18T01:16:11;17.40;99.90
20380;DHT22;10349;48.666;8.948;2022-08-18T01:18:56;17.40;99.90
20380;DHT22;10349;48.666;8.948;2022-08-18T01:21:44;17.40;99.90
20380;DHT22;10349;48.666;8.948;2022-08-18T01:24:25;17.30;99.90
20380;DHT22;10349;48.666;8.948;2022-08-18T01:27:14;17.30;99.90
20380;DHT22;10349;48.666;8.948;2022-08-18T01:29:46;17.30;99.90
20380;DHT22;10349;48.666;8.948;2022-08-18T01:32:15;17.40;99.90
20380;DHT22;10349;48.666;8.948;2022-08-18T01:34:45;17.30;99.90
20380;DHT22;10349;48.666;8.948;2022-08-18T01:37:15;17.30;99.90
20380;DHT22;10349;48.666;8.948;2022-08-18T01:39:41;17.20;99.90
20380;DHT22;10349;48.666;8.948;2022-08-18T01:42:07;17.20;99.90
20380;DHT22;10349;48.666;8.948;2022-08-18T01:44:33;17.10;99.90
20380;DHT22;10349;48.666;8.948;2022-08-18T01:46:58;17.10;99.90
20380;DHT22;10349;48.666;8.948;2022-08-18T01:49:24;17.10;99.90
20380;DHT22;10349;48.666;8.948;2022-08-18T01:51:53;17.10;99.90
20380;DHT22;10349;48.666;8.948;2022-08-18T01:54:20;17.20;99.90
20380;DHT22;10349;48.666;8.948;2022-08-18T01:56:46;17.10;99.90
20380;DHT22;10349;48.666;8.948;2022-08-18T01:59:14;17.10;99.90
20380;DHT22;10349;48.666;8.948;2022-08-18T02:01:43;17.10;99.90
20380;DHT22;10349;48.666;8.948;2022-08-18T02:04:09;17.00;99.90
20380;DHT22;10349;48.666;8.948;2022-08-18T02:06:37;17.00;99.90
20380;DHT22;10349;48.666;8.948;2022-08-18T02:09:04;16.90;99.90
20380;DHT22;10349;48.666;8.948;2022-08-18T02:11:29;16.90;99.90
20380;DHT22;10349;48.666;8.948;2022-08-18T02:13:55;16.90;99.90
20380;DHT22;10349;48.666;8.948;2022-08-18T02:16:21;16.90;99.90
20380;DHT22;10349;48.666;8.948;2022-08-18T02:18:46;16.90;99.90
20380;DHT22;10349;48.666;8.948;2022-08-18T02:21:15;16.90;99.90
20380;DHT22;10349;48.666;8.948;2022-08-18T02:23:42;16.90;99.90
20380;DHT22;10349;48.666;8.948;2022-08-18T02:26:11;16.90;99.90
20380;DHT22;10349;48.666;8.948;2022-08-18T02:28:37;16.90;99.90
20380;DHT22;10349;48.666;8.948;2022-08-18T02:31:09;16.90;99.90
20380;DHT22;10349;48.666;8.948;2022-08-18T02:33:36;16.90;99.90
20380;DHT22;10349;48.666;8.948;2022-08-18T02:36:01;16.90;99.90
20380;DHT22;10349;48.666;8.948;2022-08-18T02:38:28;16.90;99.90
20380;DHT22;10349;48.666;8.948;2022-08-18T02:40:59;16.90;99.90
20380;DHT22;10349;48.666;8.948;2022-08-18T02:43:26;16.90;99.90
20380;DHT22;10349;48.666;8.948;2022-08-18T02:45:52;17.00;99.90
20380;DHT22;10349;48.666;8.948;2022-08-18T02:48:18;17.00;99.90
20380;DHT22;10349;48.666;8.948;2022-08-18T02:51:00;17.00;99.90
20380;DHT22;10349;48.666;8.948;2022-08-18T02:53:26;16.90;99.90
20380;DHT22;10349;48.666;8.948;2022-08-18T02:55:53;16.90;99.90
20380;DHT22;10349;48.666;8.948;2022-08-18T02:58:19;16.90;99.90
20380;DHT22;10349;48.666;8.948;2022-08-18T03:00:45;16.90;99.90
20380;DHT22;10349;48.666;8.948;2022-08-18T03:03:10;17.00;99.90
20380;DHT22;10349;48.666;8.948;2022-08-18T03:05:38;17.00;99.90
20380;DHT22;10349;48.666;8.948;2022-08-18T03:08:04;17.00;99.90
20380;DHT22;10349;48.666;8.948;2022-08-18T03:10:30;17.00;99.90
20380;DHT22;10349;48.666;8.948;2022-08-18T03:12:55;17.00;99.90
20380;DHT22;10349;48.666;8.948;2022-08-18T03:15:21;17.00;99.90
20380;DHT22;10349;48.666;8.948;2022-08-18T03:17:47;16.90;99.90
20380;DHT22;10349;48.666;8.948;2022-08-18T03:20:12;16.90;99.90
20380;DHT22;10349;48.666;8.948;2022-08-18T03:22:38;16.90;99.90
20380;DHT22;10349;48.666;8.948;2022-08-18T03:25:04;16.90;99.90
20380;DHT22;10349;48.666;8.948;2022-08-18T03:27:29;16.90;99.90
20380;DHT22;10349;48.666;8.948;2022-08-18T03:29:55;17.00;99.90
20380;DHT22;10349;48.666;8.948;2022-08-18T03:32:21;17.00;99.90
20380;DHT22;10349;48.666;8.948;2022-08-18T03:34:47;17.00;99.90
20380;DHT22;10349;48.666;8.948;2022-08-18T03:37:13;17.00;99.90
20380;DHT22;10349;48.666;8.948;2022-08-18T03:39:40;17.00;99.90
20380;DHT22;10349;48.666;8.948;2022-08-18T03:42:06;17.00;99.90
20380;DHT22;10349;48.666;8.948;2022-08-18T03:44:34;17.10;99.90
20380;DHT22;10349;48.666;8.948;2022-08-18T03:47:02;17.10;99.90
20380;DHT22;10349;48.666;8.948;2022-08-18T03:49:28;17.00;99.90
20380;DHT22;10349;48.666;8.948;2022-08-18T03:51:54;17.00;99.90
20380;DHT22;10349;48.666;8.948;2022-08-18T03:54:21;17.00;99.90
20380;DHT22;10349;48.666;8.948;2022-08-18T03:56:47;17.00;99.90
20380;DHT22;10349;48.666;8.948;2022-08-18T03:59:16;17.00;99.90
20380;DHT22;10349;48.666;8.948;2022-08-18T04:01:44;17.00;99.90
20380;DHT22;10349;48.666;8.948;2022-08-18T04:04:16;17.00;99.90
20380;DHT22;10349;48.666;8.948;2022-08-18T04:06:46;17.00;99.90
20380;DHT22;10349;48.666;8.948;2022-08-18T04:09:15;17.10;99.90
20380;DHT22;10349;48.666;8.948;2022-08-18T04:11:42;17.10;99.90
20380;DHT22;10349;48.666;8.948;2022-08-18T04:14:08;17.10;99.90
20380;DHT22;10349;48.666;8.948;2022-08-18T04:16:34;17.10;99.90
20380;DHT22;10349;48.666;8.948;2022-08-18T04:19:03;17.10;99.90
20380;DHT22;10349;48.666;8.948;2022-08-18T04:21:30;17.10;99.90
20380;DHT22;10349;48.666;8.948;2022-08-18T04:23:58;17.20;99.90
20380;DHT22;10349;48.666;8.948;2022-08-18T04:26:27;17.20;99.90
20380;DHT22;10349;48.666;8.948;2022-08-18T04:28:53;17.20;99.90
20380;DHT22;10349;48.666;8.948;2022-08-18T04:31:18;17.20;99.90
20380;DHT22;10349;48.666;8.948;2022-08-18T04:33:48;17.20;99.90
20380;DHT22;10349;48.666;8.948;2022-08-18T04:36:15;17.20;99.90
20380;DHT22;10349;48.666;8.948;2022-08-18T04:38:42;17.20;99.90
20380;DHT22;10349;48.666;8.948;2022-08-18T04:41:11;17.20;99.90
20380;DHT22;10349;48.666;8.948;2022-08-18T04:43:38;17.20;99.90
20380;DHT22;10349;48.666;8.948;2022-08-18T04:46:04;17.20;99.90
20380;DHT22;10349;48.666;8.948;2022-08-18T04:48:37;17.30;99.90
20380;DHT22;10349;48.666;8.948;2022-08-18T04:51:08;17.30;99.90
20380;DHT22;10349;48.666;8.948;2022-08-18T04:53:35;17.20;99.90
20380;DHT22;10349;48.666;8.948;2022-08-18T04:59:11;17.20;99.90
20380;DHT22;10349;48.666;8.948;2022-08-18T05:01:42;17.10;99.90
20380;DHT22;10349;48.666;8.948;2022-08-18T05:04:10;17.10;99.90
20380;DHT22;10349;48.666;8.948;2022-08-18T05:06:38;17.20;99.90
20380;DHT22;10349;48.666;8.948;2022-08-18T05:09:08;17.20;99.90
20380;DHT22;10349;48.666;8.948;2022-08-18T05:11:35;17.20;99.90
20380;DHT22;10349;48.666;8.948;2022-08-18T05:14:03;17.20;99.90
20380;DHT22;10349;48.666;8.948;2022-08-18T05:16:29;17.20;99.90
20380;DHT22;10349;48.666;8.948;2022-08-18T05:19:06;17.10;99.90
20380;DHT22;10349;48.666;8.948;2022-08-18T05:21:32;17.10;99.90
20380;DHT22;10349;48.666;8.948;2022-08-18T05:23:59;17.10;99.90
20380;DHT22;10349;48.666;8.948;2022-08-18T05:26:25;17.10;99.90
20380;DHT22;10349;48.666;8.948;2022-08-18T05:28:52;17.10;99.90
20380;DHT22;10349;48.666;8.948;2022-08-18T05:31:27;17.10;99.90
20380;DHT22;10349;48.666;8.948;2022-08-18T05:33:54;17.10;99.90
20380;DHT22;10349;48.666;8.948;2022-08-18T05:41:29;17.20;99.90
20380;DHT22;10349;48.666;8.948;2022-08-18T05:43:56;17.30;99.90
20380;DHT22;10349;48.666;8.948;2022-08-18T05:46:31;17.30;99.90
20380;DHT22;10349;48.666;8.948;2022-08-18T05:48:59;17.30;99.90
20380;DHT22;10349;48.666;8.948;2022-08-18T05:51:30;17.40;99.90
20380;DHT22;10349;48.666;8.948;2022-08-18T05:53:58;17.40;99.90
20380;DHT22;10349;48.666;8.948;2022-08-18T05:56:44;17.50;99.90
20380;DHT22;10349;48.666;8.948;2022-08-18T05:59:15;17.50;99.90
20380;DHT22;10349;48.666;8.948;2022-08-18T06:01:45;17.50;99.90
20380;DHT22;10349;48.666;8.948;2022-08-18T06:07:04;17.70;99.90
20380;DHT22;10349;48.666;8.948;2022-08-18T06:09:50;17.70;99.90
20380;DHT22;10349;48.666;8.948;2022-08-18T06:14:48;17.90;99.90
20380;DHT22;10349;48.666;8.948;2022-08-18T06:17:30;18.00;99.90
20380;DHT22;10349;48.666;8.948;2022-08-18T06:20:12;18.10;99.90
20380;DHT22;10349;48.666;8.948;2022-08-18T06:25:43;18.20;99.90
20380;DHT22;10349;48.666;8.948;2022-08-18T06:28:14;18.30;99.90
20380;DHT22;10349;48.666;8.948;2022-08-18T06:41:19;18.40;99.90
20380;DHT22;10349;48.666;8.948;2022-08-18T06:43:58;18.50;99.90
20380;DHT22;10349;48.666;8.948;2022-08-18T06:46:32;18.50;99.90
20380;DHT22;10349;48.666;8.948;2022-08-18T06:49:07;18.50;99.90
20380;DHT22;10349;48.666;8.948;2022-08-18T06:51:34;18.50;99.90
20380;DHT22;10349;48.666;8.948;2022-08-18T06:56:51;18.70;99.90
20380;DHT22;10349;48.666;8.948;2022-08-18T06:59:30;18.50;99.90
20380;DHT22;10349;48.666;8.948;2022-08-18T07:02:21;18.60;99.90
20380;DHT22;10349;48.666;8.948;2022-08-18T07:07:45;18.80;99.90
20380;DHT22;10349;48.666;8.948;2022-08-18T07:12:50;18.90;99.90
20380;DHT22;10349;48.666;8.948;2022-08-18T07:15:23;18.90;99.90
20380;DHT22;10349;48.666;8.948;2022-08-18T07:17:49;18.80;99.90
20380;DHT22;10349;48.666;8.948;2022-08-18T07:20:46;18.80;99.90
20380;DHT22;10349;48.666;8.948;2022-08-18T07:26:18;18.70;99.90
20380;DHT22;10349;48.666;8.948;2022-08-18T07:28:51;18.60;99.90
20380;DHT22;10349;48.666;8.948;2022-08-18T07:31:39;18.50;99.90
20380;DHT22;10349;48.666;8.948;2022-08-18T07:34:37;18.50;99.90
20380;DHT22;10349;48.666;8.948;2022-08-18T07:37:25;18.50;99.90
20380;DHT22;10349;48.666;8.948;2022-08-18T07:39:58;18.50;99.90
20380;DHT22;10349;48.666;8.948;2022-08-18T07:45:30;18.60;99.90
20380;DHT22;10349;48.666;8.948;2022-08-18T07:48:30;18.70;99.90
20380;DHT22;10349;48.666;8.948;2022-08-18T07:53:52;18.70;99.90
20380;DHT22;10349;48.666;8.948;2022-08-18T07:56:50;18.80;99.90
20380;DHT22;10349;48.666;8.948;2022-08-18T07:59:46;18.80;99.90
20380;DHT22;10349;48.666;8.948;2022-08-18T08:16:41;18.70;99.90
20380;DHT22;10349;48.666;8.948;2022-08-18T08:30:07;19.30;99.90
20380;DHT22;10349;48.666;8.948;2022-08-18T08:33:09;19.50;99.90
20380;DHT22;10349;48.666;8.948;2022-08-18T08:36:04;19.60;99.90
20380;DHT22;10349;48.666;8.948;2022-08-18T08:38:42;19.70;99.90
20380;DHT22;10349;48.666;8.948;2022-08-18T08:44:47;20.00;99.90
20380;DHT22;10349;48.666;8.948;2022-08-18T08:46:59;20.10;99.90
20380;DHT22;10349;48.666;8.948;2022-08-18T08:49:29;20.20;99.90
20380;DHT22;10349;48.666;8.948;2022-08-18T08:52:10;20.30;99.90
20380;DHT22;10349;48.666;8.948;2022-08-18T08:57:06;20.40;99.90
20380;DHT22;10349;48.666;8.948;2022-08-18T08:59:34;20.50;99.90
20380;DHT22;10349;48.666;8.948;2022-08-18T09:05:18;20.50;99.90
20380;DHT22;10349;48.666;8.948;2022-08-18T09:13:33;20.70;99.90
20380;DHT22;10349;48.666;8.948;2022-08-18T09:21:57;21.00;99.90
20380;DHT22;10349;48.666;8.948;2022-08-18T09:29:58;21.20;99.90
20380;DHT22;10349;48.666;8.948;2022-08-18T09:37:55;21.20;99.90
20380;DHT22;10349;48.666;8.948;2022-08-18T09:40:47;21.20;99.90
20380;DHT22;10349;48.666;8.948;2022-08-18T09:43:39;21.30;99.90
20380;DHT22;10349;48.666;8.948;2022-08-18T09:51:51;21.50;99.90
20380;DHT22;10349;48.666;8.948;2022-08-18T09:54:19;21.60;99.90
20380;DHT22;10349;48.666;8.948;2022-08-18T10:02:08;21.70;99.90
20380;DHT22;10349;48.666;8.948;2022-08-18T10:04:42;21.70;99.90
20380;DHT22;10349;48.666;8.948;2022-08-18T10:07:27;21.90;99.90
20380;DHT22;10349;48.666;8.948;2022-08-18T10:10:07;21.90;99.90
20380;DHT22;10349;48.666;8.948;2022-08-18T10:15:40;22.20;99.90
20380;DHT22;10349;48.666;8.948;2022-08-18T10:18:19;22.50;99.90
20380;DHT22;10349;48.666;8.948;2022-08-18T10:29:05;22.80;99.90
20380;DHT22;10349;48.666;8.948;2022-08-18T10:37:19;22.90;99.90
20380;DHT22;10349;48.666;8.948;2022-08-18T10:39:50;22.90;99.90
20380;DHT22;10349;48.666;8.948;2022-08-18T10:42:37;23.10;99.90
20380;DHT22;10349;48.666;8.948;2022-08-18T10:45:25;23.30;99.90
20380;DHT22;10349;48.666;8.948;2022-08-18T10:50:27;23.80;99.90
20380;DHT22;10349;48.666;8.948;2022-08-18T10:53:09;23.70;99.90
20380;DHT22;10349;48.666;8.948;2022-08-18T10:56:00;23.70;99.90
20380;DHT22;10349;48.666;8.948;2022-08-18T10:58:47;23.50;99.90
20380;DHT22;10349;48.666;8.948;2022-08-18T11:01:54;23.40;99.90
20380;DHT22;10349;48.666;8.948;2022-08-18T11:06:51;23.10;99.90
20380;DHT22;10349;48.666;8.948;2022-08-18T11:09:26;23.10;99.90
20380;DHT22;10349;48.666;8.948;2022-08-18T11:11:54;23.20;99.90
20380;DHT22;10349;48.666;8.948;2022-08-18T11:17:19;23.10;99.90
20380;DHT22;10349;48.666;8.948;2022-08-18T11:19:50;23.30;99.90
20380;DHT22;10349;48.666;8.948;2022-08-18T11:22:25;23.30;99.90
20380;DHT22;10349;48.666;8.948;2022-08-18T11:24:51;23.20;99.90
20380;DHT22;10349;48.666;8.948;2022-08-18T11:27:27;23.20;99.90
20380;DHT22;10349;48.666;8.948;2022-08-18T11:29:58;23.20;99.90
20380;DHT22;10349;48.666;8.948;2022-08-18T11:32:36;23.10;99.90
20380;DHT22;10349;48.666;8.948;2022-08-18T11:35:10;22.90;99.90
20380;DHT22;10349;48.666;8.948;2022-08-18T11:38:01;22.80;99.90
20380;DHT22;10349;48.666;8.948;2022-08-18T11:53:39;23.00;99.90
20380;DHT22;10349;48.666;8.948;2022-08-18T11:59:07;22.90;99.90
20380;DHT22;10349;48.666;8.948;2022-08-18T12:01:49;22.90;99.90
20380;DHT22;10349;48.666;8.948;2022-08-18T12:07:09;23.10;99.90
20380;DHT22;10349;48.666;8.948;2022-08-18T12:09:41;23.10;99.90
20380;DHT22;10349;48.666;8.948;2022-08-18T12:12:30;22.90;99.90
20380;DHT22;10349;48.666;8.948;2022-08-18T12:15:24;22.90;99.90
20380;DHT22;10349;48.666;8.948;2022-08-18T12:17:50;22.90;99.90
20380;DHT22;10349;48.666;8.948;2022-08-18T12:20:16;22.80;99.90
20380;DHT22;10349;48.666;8.948;2022-08-18T12:22:44;22.80;99.90
20380;DHT22;10349;48.666;8.948;2022-08-18T12:25:13;22.80;99.90
20380;DHT22;10349;48.666;8.948;2022-08-18T12:27:39;22.90;99.90
20380;DHT22;10349;48.666;8.948;2022-08-18T12:30:07;23.00;99.90
20380;DHT22;10349;48.666;8.948;2022-08-18T12:32:35;23.10;99.90
20380;DHT22;10349;48.666;8.948;2022-08-18T12:35:02;23.20;99.90
20380;DHT22;10349;48.666;8.948;2022-08-18T12:37:29;23.30;99.90
20380;DHT22;10349;48.666;8.948;2022-08-18T12:39:56;23.30;99.90
20380;DHT22;10349;48.666;8.948;2022-08-18T12:42:23;23.40;99.90
20380;DHT22;10349;48.666;8.948;2022-08-18T12:44:49;23.50;99.90
20380;DHT22;10349;48.666;8.948;2022-08-18T12:47:19;23.50;99.90
20380;DHT22;10349;48.666;8.948;2022-08-18T12:49:45;23.70;99.90
20380;DHT22;10349;48.666;8.948;2022-08-18T12:52:11;23.60;99.90
20380;DHT22;10349;48.666;8.948;2022-08-18T12:54:37;23.60;99.90
20380;DHT22;10349;48.666;8.948;2022-08-18T12:57:09;23.60;99.90
20380;DHT22;10349;48.666;8.948;2022-08-18T12:59:37;23.70;99.90
20380;DHT22;10349;48.666;8.948;2022-08-18T13:02:03;24.00;99.90
20380;DHT22;10349;48.666;8.948;2022-08-18T13:04:29;24.10;99.90
20380;DHT22;10349;48.666;8.948;2022-08-18T13:06:57;24.20;99.90
20380;DHT22;10349;48.666;8.948;2022-08-18T13:09:23;24.10;99.90
20380;DHT22;10349;48.666;8.948;2022-08-18T13:11:49;24.20;99.90
20380;DHT22;10349;48.666;8.948;2022-08-18T13:14:15;24.20;99.90
20380;DHT22;10349;48.666;8.948;2022-08-18T13:16:43;24.30;99.90
20380;DHT22;10349;48.666;8.948;2022-08-18T13:19:11;24.40;99.90
20380;DHT22;10349;48.666;8.948;2022-08-18T13:21:37;24.50;99.90
20380;DHT22;10349;48.666;8.948;2022-08-18T13:24:03;24.50;99.90
20380;DHT22;10349;48.666;8.948;2022-08-18T13:26:32;24.50;99.90
20380;DHT22;10349;48.666;8.948;2022-08-18T13:28:59;24.40;99.90
20380;DHT22;10349;48.666;8.948;2022-08-18T13:31:25;24.50;99.90
20380;DHT22;10349;48.666;8.948;2022-08-18T13:33:52;24.60;99.90
20380;DHT22;10349;48.666;8.948;2022-08-18T13:36:18;24.70;99.90
20380;DHT22;10349;48.666;8.948;2022-08-18T13:38:44;24.90;99.90
20380;DHT22;10349;48.666;8.948;2022-08-18T13:41:10;25.00;99.90
20380;DHT22;10349;48.666;8.948;2022-08-18T13:43:40;25.00;99.90
20380;DHT22;10349;48.666;8.948;2022-08-18T13:46:10;24.90;99.90
20380;DHT22;10349;48.666;8.948;2022-08-18T13:48:37;24.90;99.90
20380;DHT22;10349;48.666;8.948;2022-08-18T13:51:05;24.90;99.90
20380;DHT22;10349;48.666;8.948;2022-08-18T13:53:32;25.00;99.90
20380;DHT22;10349;48.666;8.948;2022-08-18T13:55:59;25.10;99.90
20380;DHT22;10349;48.666;8.948;2022-08-18T13:58:28;25.10;99.90
20380;DHT22;10349;48.666;8.948;2022-08-18T14:01:00;25.30;99.90
20380;DHT22;10349;48.666;8.948;2022-08-18T14:03:27;25.20;99.90
20380;DHT22;10349;48.666;8.948;2022-08-18T14:05:53;25.10;99.90
20380;DHT22;10349;48.666;8.948;2022-08-18T14:08:23;25.20;99.90
20380;DHT22;10349;48.666;8.948;2022-08-18T14:10:52;25.20;99.90
20380;DHT22;10349;48.666;8.948;2022-08-18T14:13:18;25.20;99.90
20380;DHT22;10349;48.666;8.948;2022-08-18T14:15:44;25.40;99.90
20380;DHT22;10349;48.666;8.948;2022-08-18T14:18:10;25.40;99.90
20380;DHT22;10349;48.666;8.948;2022-08-18T14:20:36;25.10;99.90
20380;DHT22;10349;48.666;8.948;2022-08-18T14:23:20;24.90;99.90
20380;DHT22;10349;48.666;8.948;2022-08-18T14:26:04;24.80;99.90
20380;DHT22;10349;48.666;8.948;2022-08-18T14:28:49;24.70;99.90
20380;DHT22;10349;48.666;8.948;2022-08-18T14:31:15;24.70;99.90
20380;DHT22;10349;48.666;8.948;2022-08-18T14:33:43;24.70;99.90
20380;DHT22;10349;48.666;8.948;2022-08-18T14:36:09;24.70;99.90
20380;DHT22;10349;48.666;8.948;2022-08-18T14:38:35;24.70;99.90
20380;DHT22;10349;48.666;8.948;2022-08-18T14:41:06;24.60;99.90
20380;DHT22;10349;48.666;8.948;2022-08-18T14:43:32;24.60;99.90
20380;DHT22;10349;48.666;8.948;2022-08-18T14:46:00;24.70;99.90
20380;DHT22;10349;48.666;8.948;2022-08-18T14:48:26;24.70;99.90
20380;DHT22;10349;48.666;8.948;2022-08-18T14:50:54;24.70;99.90
20380;DHT22;10349;48.666;8.948;2022-08-18T14:53:23;24.80;99.90
20380;DHT22;10349;48.666;8.948;2022-08-18T14:55:51;24.70;99.90
20380;DHT22;10349;48.666;8.948;2022-08-18T14:58:18;24.70;99.90
20380;DHT22;10349;48.666;8.948;2022-08-18T15:00:44;24.70;99.90
20380;DHT22;10349;48.666;8.948;2022-08-18T15:03:09;24.80;99.90
20380;DHT22;10349;48.666;8.948;2022-08-18T15:05:36;24.70;99.90
20380;DHT22;10349;48.666;8.948;2022-08-18T15:08:03;24.70;99.90
20380;DHT22;10349;48.666;8.948;2022-08-18T15:10:30;24.70;99.90
20380;DHT22;10349;48.666;8.948;2022-08-18T15:12:58;24.70;99.90
20380;DHT22;10349;48.666;8.948;2022-08-18T15:15:26;24.80;99.90
20380;DHT22;10349;48.666;8.948;2022-08-18T15:17:52;24.90;99.90
20380;DHT22;10349;48.666;8.948;2022-08-18T15:20:19;25.00;99.90
20380;DHT22;10349;48.666;8.948;2022-08-18T15:22:45;24.90;99.90
20380;DHT22;10349;48.666;8.948;2022-08-18T15:25:30;24.90;99.90
20380;DHT22;10349;48.666;8.948;2022-08-18T15:28:15;24.90;99.90
20380;DHT22;10349;48.666;8.948;2022-08-18T15:30:47;25.00;99.90
20380;DHT22;10349;48.666;8.948;2022-08-18T15:33:13;25.10;99.90
20380;DHT22;10349;48.666;8.948;2022-08-18T15:35:41;25.20;99.90
20380;DHT22;10349;48.666;8.948;2022-08-18T15:38:08;25.30;99.90
20380;DHT22;10349;48.666;8.948;2022-08-18T15:40:37;25.20;99.90
20380;DHT22;10349;48.666;8.948;2022-08-18T15:43:11;25.20;99.90
20380;DHT22;10349;48.666;8.948;2022-08-18T15:45:39;25.30;99.90
20380;DHT22;10349;48.666;8.948;2022-08-18T15:48:08;25.30;99.90
20380;DHT22;10349;48.666;8.948;2022-08-18T15:50:33;25.20;99.90
20380;DHT22;10349;48.666;8.948;2022-08-18T15:53:02;25.10;99.90
20380;DHT22;10349;48.666;8.948;2022-08-18T15:55:33;25.00;99.90
20380;DHT22;10349;48.666;8.948;2022-08-18T15:58:00;25.00;99.90
20380;DHT22;10349;48.666;8.948;2022-08-18T16:00:28;25.00;99.90
20380;DHT22;10349;48.666;8.948;2022-08-18T16:03:04;25.20;99.90
20380;DHT22;10349;48.666;8.948;2022-08-18T16:05:35;25.20;99.90
20380;DHT22;10349;48.666;8.948;2022-08-18T16:08:03;25.10;99.90
20380;DHT22;10349;48.666;8.948;2022-08-18T16:10:31;25.10;99.90
20380;DHT22;10349;48.666;8.948;2022-08-18T16:12:57;25.00;99.90
20380;DHT22;10349;48.666;8.948;2022-08-18T16:15:24;25.10;99.90
20380;DHT22;10349;48.666;8.948;2022-08-18T16:17:52;25.00;99.90
20380;DHT22;10349;48.666;8.948;2022-08-18T16:20:20;25.10;99.90
20380;DHT22;10349;48.666;8.948;2022-08-18T16:22:49;25.10;99.90
20380;DHT22;10349;48.666;8.948;2022-08-18T16:25:15;25.00;99.90
20380;DHT22;10349;48.666;8.948;2022-08-18T16:27:42;25.00;99.90
20380;DHT22;10349;48.666;8.948;2022-08-18T16:30:09;25.00;99.90
20380;DHT22;10349;48.666;8.948;2022-08-18T16:32:35;25.10;99.90
20380;DHT22;10349;48.666;8.948;2022-08-18T16:35:01;25.10;99.90
20380;DHT22;10349;48.666;8.948;2022-08-18T16:37:26;25.10;99.90
20380;DHT22;10349;48.666;8.948;2022-08-18T16:39:55;24.80;99.90
20380;DHT22;10349;48.666;8.948;2022-08-18T16:42:21;24.70;99.90
20380;DHT22;10349;48.666;8.948;2022-08-18T16:44:47;24.60;99.90
20380;DHT22;10349;48.666;8.948;2022-08-18T16:47:13;24.50;99.90
20380;DHT22;10349;48.666;8.948;2022-08-18T16:49:46;24.50;99.90
20380;DHT22;10349;48.666;8.948;2022-08-18T16:52:14;24.40;99.90
20380;DHT22;10349;48.666;8.948;2022-08-18T16:54:41;24.30;99.90
20380;DHT22;10349;48.666;8.948;2022-08-18T16:57:07;24.20;99.90
20380;DHT22;10349;48.666;8.948;2022-08-18T16:59:33;24.10;99.90
20380;DHT22;10349;48.666;8.948;2022-08-18T17:02:18;24.10;99.90
20380;DHT22;10349;48.666;8.948;2022-08-18T17:05:03;24.00;99.90
20380;DHT22;10349;48.666;8.948;2022-08-18T17:07:29;23.80;99.90
20380;DHT22;10349;48.666;8.948;2022-08-18T17:09:56;23.70;99.90
20380;DHT22;10349;48.666;8.948;2022-08-18T17:12:23;23.60;99.90
20380;DHT22;10349;48.666;8.948;2022-08-18T17:14:49;23.50;99.90
20380;DHT22;10349;48.666;8.948;2022-08-18T17:17:15;23.40;99.90
20380;DHT22;10349;48.666;8.948;2022-08-18T17:19:43;23.20;99.90
20380;DHT22;10349;48.666;8.948;2022-08-18T17:22:10;23.10;99.90
20380;DHT22;10349;48.666;8.948;2022-08-18T17:24:37;23.20;99.90
20380;DHT22;10349;48.666;8.948;2022-08-18T17:27:18;23.30;99.90
20380;DHT22;10349;48.666;8.948;2022-08-18T17:30:11;23.20;99.90
20380;DHT22;10349;48.666;8.948;2022-08-18T17:32:45;23.10;99.90
20380;DHT22;10349;48.666;8.948;2022-08-18T17:35:22;22.90;99.90
20380;DHT22;10349;48.666;8.948;2022-08-18T17:37:55;22.70;99.90
20380;DHT22;10349;48.666;8.948;2022-08-18T17:40:38;22.70;99.90
20380;DHT22;10349;48.666;8.948;2022-08-18T17:43:10;22.60;99.90
20380;DHT22;10349;48.666;8.948;2022-08-18T17:45:36;22.60;99.90
20380;DHT22;10349;48.666;8.948;2022-08-18T17:48:29;22.60;99.90
20380;DHT22;10349;48.666;8.948;2022-08-18T17:50:58;22.60;99.90
20380;DHT22;10349;48.666;8.948;2022-08-18T17:53:43;22.60;99.90
20380;DHT22;10349;48.666;8.948;2022-08-18T17:56:20;22.40;99.90
20380;DHT22;10349;48.666;8.948;2022-08-18T17:58:54;22.50;99.90
20380;DHT22;10349;48.666;8.948;2022-08-18T18:01:25;22.40;99.90
20380;DHT22;10349;48.666;8.948;2022-08-18T18:03:52;22.30;99.90
20380;DHT22;10349;48.666;8.948;2022-08-18T18:06:28;22.30;99.90
20380;DHT22;10349;48.666;8.948;2022-08-18T18:11:42;22.20;99.90
20380;DHT22;10349;48.666;8.948;2022-08-18T18:14:27;22.20;99.90
20380;DHT22;10349;48.666;8.948;2022-08-18T18:19:34;22.00;99.90
20380;DHT22;10349;48.666;8.948;2022-08-18T18:22:06;22.00;99.90
20380;DHT22;10349;48.666;8.948;2022-08-18T18:24:34;21.90;99.90
20380;DHT22;10349;48.666;8.948;2022-08-18T18:27:00;21.80;99.90
20380;DHT22;10349;48.666;8.948;2022-08-18T18:29:30;21.80;99.90
20380;DHT22;10349;48.666;8.948;2022-08-18T18:35:19;21.80;99.90
20380;DHT22;10349;48.666;8.948;2022-08-18T18:40:52;21.80;99.90
20380;DHT22;10349;48.666;8.948;2022-08-18T18:43:22;21.70;99.90